Terminal Aerodrome Forecast
Issued by NWS Midland/Odessa, TX

Home | Current Version | Previous Version | Text Only | Print | Product List | Glossary On
Versions: 1 2 3 4 5 6 7 8 9 10 11 12 13 14 15 16 17 18 19
000
FTUS44 KMAF 231600 AAB
TAFMAF
TAF AMD
KMAF 231600Z 2316/2412 22012KT P6SM SKC
     FM231800 26025G35KT P6SM SKC
      TEMPO 2319/2323 6SM BLDU
     FM240100 26009KT P6SM FEW200=

USA.gov is the U.S. government's official web portal to all federal, state and local government web resources and services.